Time;durP1;ratioP1;P1;durP2;ratioP2;P2;SDS_P1;SDS_P2;PMS_P1;PMS_P2;Temp;Humidity;BMP_temperature;BMP_pressure;BME280_temperature;BME280_humidity;BME280_pressure;Samples;Min_cycle;Max_cycle;Signal;HPM_P1;HPM_P2
2024/02/29 00:01:49;0.00;0.00;0.62;0.00;0.00;0.62;4.03;3.63;;;22.10;23.10;;;;;;2259320;61;20464;-66
2024/02/29 00:04:34;0.00;0.00;0.62;0.00;0.00;0.62;5.40;4.20;;;22.10;23.10;;;;;;2259721;61;20472;-66
2024/02/29 00:07:21;0.00;0.00;0.62;0.00;0.00;0.62;4.43;4.03;;;22.10;23.10;;;;;;2259087;61;20886;-65
2024/02/29 00:10:08;0.00;0.00;0.62;0.00;0.00;0.62;4.70;4.20;;;22.00;23.00;;;;;;2259579;61;20377;-65
2024/02/29 00:12:53;0.00;0.00;0.62;0.00;0.00;0.62;4.80;4.10;;;22.00;23.10;;;;;;2259543;61;20377;-66
2024/02/29 00:15:38;0.00;0.00;0.62;0.00;0.00;0.62;4.50;3.87;;;22.00;23.00;;;;;;2259428;61;20819;-65
2024/02/29 00:18:22;0.00;0.00;0.62;0.00;0.00;0.62;5.70;4.37;;;22.00;23.10;;;;;;2259444;61;20803;-66
2024/02/29 00:21:07;0.00;0.00;0.62;0.00;0.00;0.62;4.03;3.63;;;22.00;23.00;;;;;;2259457;61;20842;-66
2024/02/29 00:23:51;0.00;0.00;0.62;0.00;0.00;0.62;4.57;3.70;;;22.00;23.00;;;;;;2259257;61;20364;-67
2024/02/29 00:26:37;0.00;0.00;0.62;0.00;0.00;0.62;4.93;4.43;;;22.00;23.10;;;;;;2259662;61;20377;-66
2024/02/29 00:29:26;0.00;0.00;0.62;0.00;0.00;0.62;3.20;2.90;;;22.00;23.10;;;;;;2259389;61;20897;-66
2024/02/29 00:32:11;0.00;0.00;0.62;0.00;0.00;0.62;5.20;4.23;;;22.00;23.10;;;;;;2259280;61;20918;-66
2024/02/29 00:34:56;0.00;0.00;0.62;0.00;0.00;0.62;5.23;3.90;;;22.00;23.00;;;;;;2259338;61;20822;-66
2024/02/29 00:37:41;0.00;0.00;0.62;0.00;0.00;0.62;4.50;3.70;;;22.00;23.10;;;;;;2259305;61;20779;-66
2024/02/29 00:40:25;0.00;0.00;0.62;0.00;0.00;0.62;4.90;3.77;;;22.00;23.60;;;;;;2259316;61;20419;-66
2024/02/29 00:43:11;0.00;0.00;0.62;0.00;0.00;0.62;5.13;3.53;;;22.00;23.00;;;;;;2259465;61;20737;-66
2024/02/29 00:45:57;0.00;0.00;0.62;0.00;0.00;0.62;4.90;4.13;;;22.00;23.10;;;;;;2259159;61;20663;-66
2024/02/29 00:48:42;0.00;0.00;0.62;0.00;0.00;0.62;4.03;3.43;;;22.00;23.10;;;;;;2259267;61;20408;-66
2024/02/29 00:51:26;0.00;0.00;0.62;0.00;0.00;0.62;4.37;3.97;;;22.00;23.00;;;;;;2259292;61;20904;-66
2024/02/29 00:54:11;0.00;0.00;0.62;0.00;0.00;0.62;5.53;4.47;;;22.00;23.00;;;;;;2259424;61;20369;-66
2024/02/29 00:56:55;0.00;0.00;0.62;0.00;0.00;0.62;4.00;3.60;;;22.00;23.00;;;;;;2259124;61;20369;-66
2024/02/29 00:59:41;0.00;0.00;0.62;0.00;0.00;0.62;5.10;4.03;;;21.90;23.00;;;;;;2259417;61;20890;-66
2024/02/29 01:02:26;0.00;0.00;0.62;0.00;0.00;0.62;3.83;3.40;;;21.90;23.00;;;;;;2259405;61;20965;-66
2024/02/29 01:05:11;0.00;0.00;0.62;0.00;0.00;0.62;5.23;4.00;;;21.90;23.00;;;;;;2259307;61;20361;-66
2024/02/29 01:07:56;0.00;0.00;0.62;0.00;0.00;0.62;4.63;3.70;;;21.90;23.00;;;;;;2258975;61;20357;-66
2024/02/29 01:10:41;0.00;0.00;0.62;0.00;0.00;0.62;4.00;3.33;;;21.90;23.00;;;;;;2259416;61;20876;-66
2024/02/29 01:13:26;0.00;0.00;0.62;0.00;0.00;0.62;4.00;3.60;;;21.90;23.00;;;;;;2259439;61;20364;-66
2024/02/29 01:16:12;0.00;0.00;0.62;0.00;0.00;0.62;3.30;2.93;;;21.90;23.00;;;;;;2259388;61;20879;-66
2024/02/29 01:18:57;0.00;0.00;0.62;0.00;0.00;0.62;4.17;3.20;;;21.90;23.00;;;;;;2259478;61;20388;-66
2024/02/29 01:21:42;0.00;0.00;0.62;0.00;0.00;0.62;3.73;3.27;;;21.90;23.00;;;;;;2259225;61;20388;-66
2024/02/29 01:24:26;0.00;0.00;0.62;0.00;0.00;0.62;3.97;3.20;;;21.90;23.50;;;;;;2259401;61;20365;-65
2024/02/29 01:27:11;0.00;0.00;0.62;0.00;0.00;0.62;4.00;3.27;;;21.90;23.00;;;;;;2259316;61;21091;-65
2024/02/29 01:29:56;0.00;0.00;0.62;0.00;0.00;0.62;3.87;3.10;;;21.90;23.00;;;;;;2259005;61;20361;-66
2024/02/29 01:32:42;0.00;0.00;0.62;0.00;0.00;0.62;4.00;3.17;;;21.90;23.00;;;;;;2259628;61;20419;-65
2024/02/29 01:35:26;0.00;0.00;0.62;0.00;0.00;0.62;4.63;3.90;;;21.90;23.00;;;;;;2259142;61;20385;-65
2024/02/29 01:38:11;0.00;0.00;0.62;0.00;0.00;0.62;4.73;3.50;;;21.90;23.00;;;;;;2259049;61;20392;-65
2024/02/29 01:40:55;0.00;0.00;0.62;0.00;0.00;0.62;4.17;3.40;;;21.90;23.00;;;;;;2262994;61;20391;-66
2024/02/29 01:43:50;0.00;0.00;0.62;0.00;0.00;0.62;3.70;2.90;;;21.90;23.00;;;;;;2260059;61;20415;-65
2024/02/29 01:46:34;0.00;0.00;0.62;0.00;0.00;0.62;3.80;3.40;;;21.90;23.00;;;;;;2263193;61;20422;-65
2024/02/29 01:49:21;0.00;0.00;0.62;0.00;0.00;0.62;3.70;3.13;;;21.90;23.00;;;;;;2263211;61;20360;-65
2024/02/29 01:52:07;0.00;0.00;0.62;0.00;0.00;0.62;3.77;3.17;;;21.90;23.00;;;;;;2263018;61;20924;-65
2024/02/29 01:54:52;0.00;0.00;0.62;0.00;0.00;0.62;3.90;2.97;;;21.90;23.00;;;;;;2263416;61;20399;-66
2024/02/29 01:57:38;0.00;0.00;0.62;0.00;0.00;0.62;3.20;2.90;;;21.90;23.00;;;;;;2263015;61;20967;-65
2024/02/29 02:00:24;0.00;0.00;0.62;0.00;0.00;0.62;3.30;2.90;;;21.90;23.00;;;;;;2263098;61;20368;-66
2024/02/29 02:03:09;0.00;0.00;0.62;0.00;0.00;0.62;3.40;2.93;;;21.90;23.00;;;;;;2263539;61;20418;-66
2024/02/29 02:05:55;0.00;0.00;0.62;0.00;0.00;0.62;3.80;3.30;;;21.90;23.00;;;;;;2263013;61;20827;-66
2024/02/29 02:08:39;0.00;0.00;0.62;0.00;0.00;0.62;3.20;2.83;;;21.90;23.00;;;;;;2263191;61;20927;-65
2024/02/29 02:11:24;0.00;0.00;0.62;0.00;0.00;0.62;4.00;3.13;;;21.90;23.10;;;;;;2263087;61;20438;-65
2024/02/29 02:14:09;0.00;0.00;0.62;0.00;0.00;0.62;3.07;2.60;;;21.80;23.00;;;;;;2263052;61;20367;-65
2024/02/29 02:16:54;0.00;0.00;0.62;0.00;0.00;0.62;2.87;2.47;;;21.80;23.00;;;;;;2263329;61;20390;-66
2024/02/29 02:19:39;0.00;0.00;0.62;0.00;0.00;0.62;4.10;2.93;;;21.80;23.00;;;;;;2263159;61;20355;-65
2024/02/29 02:22:27;0.00;0.00;0.62;0.00;0.00;0.62;3.60;2.80;;;21.80;23.00;;;;;;2305245;57;20391;-65
2024/02/29 02:25:11;0.00;0.00;0.62;0.00;0.00;0.62;3.00;2.60;;;21.80;23.00;;;;;;2501308;53;20772;-65
2024/02/29 02:27:56;0.00;0.00;0.62;0.00;0.00;0.62;2.93;2.63;;;21.80;23.00;;;;;;2257263;61;20923;-66
2024/02/29 02:30:41;0.00;0.00;0.62;0.00;0.00;0.62;4.93;2.90;;;21.80;23.00;;;;;;2263815;61;20473;-66
2024/02/29 02:33:25;0.00;0.00;0.62;0.00;0.00;0.62;3.17;2.40;;;21.80;23.00;;;;;;2264027;61;20422;-65
2024/02/29 02:36:09;0.00;0.00;0.62;0.00;0.00;0.62;2.70;2.20;;;21.80;23.00;;;;;;2263677;61;20991;-65
2024/02/29 02:38:55;0.00;0.00;0.62;0.00;0.00;0.62;3.30;2.70;;;21.80;23.00;;;;;;2263982;61;20893;-65
2024/02/29 02:41:42;0.00;0.00;0.62;0.00;0.00;0.62;4.00;2.80;;;21.80;23.00;;;;;;2263879;61;20434;-66
2024/02/29 02:44:27;0.00;0.00;0.62;0.00;0.00;0.62;3.10;2.80;;;21.80;23.00;;;;;;2263685;61;20367;-66
2024/02/29 02:47:11;0.00;0.00;0.62;0.00;0.00;0.62;3.07;2.70;;;21.80;23.00;;;;;;2263810;61;20915;-66
2024/02/29 02:49:56;0.00;0.00;0.62;0.00;0.00;0.62;3.37;2.63;;;21.80;23.00;;;;;;2263809;61;20363;-65
2024/02/29 02:52:41;0.00;0.00;0.62;0.00;0.00;0.62;3.37;2.83;;;21.80;23.00;;;;;;2263841;61;20360;-65
2024/02/29 02:55:26;0.00;0.00;0.62;0.00;0.00;0.62;4.57;3.70;;;21.80;23.00;;;;;;2263742;61;20406;-65
2024/02/29 02:58:11;0.00;0.00;0.62;0.00;0.00;0.62;4.33;3.23;;;21.70;23.00;;;;;;2263595;61;20364;-65
2024/02/29 03:00:56;0.00;0.00;0.62;0.00;0.00;0.62;3.90;3.33;;;21.80;23.00;;;;;;2263912;61;20460;-65
2024/02/29 03:03:40;0.00;0.00;0.62;0.00;0.00;0.62;2.97;2.60;;;21.70;23.00;;;;;;2263880;61;20574;-65
2024/02/29 03:06:25;0.00;0.00;0.62;0.00;0.00;0.62;3.67;2.83;;;21.70;23.00;;;;;;2263573;61;20391;-65
2024/02/29 03:09:11;0.00;0.00;0.62;0.00;0.00;0.62;3.90;3.20;;;21.70;23.00;;;;;;2263902;61;20360;-65
2024/02/29 03:11:57;0.00;0.00;0.62;0.00;0.00;0.62;2.80;2.53;;;21.70;22.90;;;;;;2260445;61;20381;-65
2024/02/29 03:14:42;0.00;0.00;0.62;0.00;0.00;0.62;3.80;3.00;;;21.70;22.90;;;;;;2263668;61;20363;-65
2024/02/29 03:17:27;0.00;0.00;0.62;0.00;0.00;0.62;3.47;3.17;;;21.70;23.40;;;;;;2263541;61;20440;-65
2024/02/29 03:20:14;0.00;0.00;0.62;0.00;0.00;0.62;3.27;2.80;;;21.70;22.90;;;;;;2263471;61;20893;-65
2024/02/29 03:22:59;0.00;0.00;0.62;0.00;0.00;0.62;3.07;2.53;;;21.70;22.90;;;;;;2264031;61;20372;-65
2024/02/29 03:25:43;0.00;0.00;0.62;0.00;0.00;0.62;3.53;2.97;;;21.70;22.90;;;;;;2263561;61;20825;-65
2024/02/29 03:28:29;0.00;0.00;0.62;0.00;0.00;0.62;3.90;2.83;;;21.70;22.90;;;;;;2263287;61;20789;-66
2024/02/29 03:31:14;0.00;0.00;0.62;0.00;0.00;0.62;3.23;2.87;;;21.70;23.00;;;;;;2263594;61;20963;-65
2024/02/29 03:34:01;0.00;0.00;0.62;0.00;0.00;0.62;3.37;2.83;;;21.70;22.90;;;;;;2263661;61;20356;-65
2024/02/29 03:36:46;0.00;0.00;0.62;0.00;0.00;0.62;3.70;3.07;;;21.60;22.90;;;;;;2263498;61;20410;-65
2024/02/29 03:39:31;0.00;0.00;0.62;0.00;0.00;0.62;3.33;2.80;;;21.70;23.10;;;;;;2263855;61;20361;-66
2024/02/29 03:42:17;0.00;0.00;0.62;0.00;0.00;0.62;3.40;2.53;;;21.70;23.00;;;;;;2263704;61;20376;-65
2024/02/29 03:45:04;0.00;0.00;0.62;0.00;0.00;0.62;3.17;2.87;;;21.60;22.90;;;;;;2260428;61;20356;-66
2024/02/29 03:47:49;0.00;0.00;0.62;0.00;0.00;0.62;4.30;3.37;;;21.60;22.90;;;;;;2263563;61;20435;-65
2024/02/29 03:50:34;0.00;0.00;0.62;0.00;0.00;0.62;3.20;2.50;;;21.60;22.90;;;;;;2263694;61;20391;-66
2024/02/29 03:53:18;0.00;0.00;0.62;0.00;0.00;0.62;3.50;2.90;;;21.60;23.00;;;;;;2263693;61;20778;-65
2024/02/29 03:56:03;0.00;0.00;0.62;0.00;0.00;0.62;2.87;2.37;;;21.60;23.00;;;;;;2263592;61;20363;-65
2024/02/29 03:58:48;0.00;0.00;0.62;0.00;0.00;0.62;2.90;2.30;;;21.60;22.90;;;;;;2263369;61;20368;-65
2024/02/29 04:01:34;0.00;0.00;0.62;0.00;0.00;0.62;3.30;2.37;;;21.60;23.00;;;;;;2263775;61;20421;-66
2024/02/29 04:04:20;0.00;0.00;0.62;0.00;0.00;0.62;2.97;2.50;;;21.60;23.00;;;;;;2263486;61;20364;-66
2024/02/29 04:07:05;0.00;0.00;0.62;0.00;0.00;0.62;3.70;2.60;;;21.60;23.00;;;;;;2263531;61;20933;-65
2024/02/29 04:09:54;0.00;0.00;0.62;0.00;0.00;0.62;2.77;1.90;;;21.60;23.00;;;;;;2260437;61;20502;-65
2024/02/29 04:12:38;0.00;0.00;0.62;0.00;0.00;0.62;3.13;2.50;;;21.60;23.00;;;;;;2263553;61;20936;-65
2024/02/29 04:15:23;0.00;0.00;0.62;0.00;0.00;0.62;2.67;2.23;;;21.60;23.10;;;;;;2263637;61;20364;-65
2024/02/29 04:18:09;0.00;0.00;0.62;0.00;0.00;0.62;3.00;2.50;;;21.60;23.00;;;;;;2263431;61;20403;-65
2024/02/29 04:20:53;0.00;0.00;0.62;0.00;0.00;0.62;2.93;2.30;;;21.60;23.00;;;;;;2263269;61;20453;-65
2024/02/29 04:23:38;0.00;0.00;0.62;0.00;0.00;0.62;3.43;2.67;;;21.60;23.00;;;;;;2263726;61;20407;-65
2024/02/29 04:26:24;0.00;0.00;0.62;0.00;0.00;0.62;4.27;2.90;;;21.60;23.00;;;;;;2263103;61;20820;-66
2024/02/29 04:29:08;0.00;0.00;0.62;0.00;0.00;0.62;2.93;2.57;;;21.50;23.00;;;;;;2263469;61;20407;-65
2024/02/29 04:31:53;0.00;0.00;0.62;0.00;0.00;0.62;2.50;2.27;;;21.60;23.00;;;;;;2263376;61;20994;-65
2024/02/29 04:34:39;0.00;0.00;0.62;0.00;0.00;0.62;3.20;2.33;;;21.50;23.00;;;;;;2263566;61;20415;-66
2024/02/29 04:37:24;0.00;0.00;0.62;0.00;0.00;0.62;3.40;2.67;;;21.50;23.00;;;;;;2260328;61;20372;-65
2024/02/29 04:40:11;0.00;0.00;0.62;0.00;0.00;0.62;2.50;2.10;;;21.50;23.00;;;;;;2263559;61;20901;-65
2024/02/29 04:42:55;0.00;0.00;0.62;0.00;0.00;0.62;3.47;2.30;;;21.50;23.00;;;;;;2263302;61;20470;-67
2024/02/29 04:45:40;0.00;0.00;0.62;0.00;0.00;0.62;3.17;2.30;;;21.60;23.10;;;;;;2263659;61;20456;-65
2024/02/29 04:48:26;0.00;0.00;0.62;0.00;0.00;0.62;3.20;2.47;;;21.50;23.00;;;;;;2263073;61;20407;-65
2024/02/29 04:51:11;0.00;0.00;0.62;0.00;0.00;0.62;3.40;2.07;;;21.50;23.00;;;;;;2263437;61;20594;-66
2024/02/29 04:53:56;0.00;0.00;0.62;0.00;0.00;0.62;2.90;2.27;;;21.50;23.00;;;;;;2263204;61;20432;-66
2024/02/29 04:56:40;0.00;0.00;0.62;0.00;0.00;0.62;2.80;2.40;;;21.50;23.00;;;;;;2263442;61;20440;-66
2024/02/29 04:59:25;0.00;0.00;0.62;0.00;0.00;0.62;2.93;2.10;;;21.50;23.00;;;;;;2263438;61;20360;-66
2024/02/29 05:02:10;0.00;0.00;0.62;0.00;0.00;0.62;3.23;2.43;;;21.50;23.00;;;;;;2263303;61;20434;-66
2024/02/29 05:04:54;0.00;0.00;0.62;0.00;0.00;0.62;2.53;1.90;;;21.50;23.00;;;;;;2263299;61;20468;-66
2024/02/29 05:07:41;0.00;0.00;0.62;0.00;0.00;0.62;3.37;2.40;;;21.50;23.00;;;;;;2263435;61;20384;-66
2024/02/29 05:10:25;0.00;0.00;0.62;0.00;0.00;0.62;3.33;2.47;;;21.50;23.00;;;;;;2263463;61;20368;-66
2024/02/29 05:13:10;0.00;0.00;0.62;0.00;0.00;0.62;3.60;2.73;;;21.50;23.00;;;;;;2263465;61;20457;-66
2024/02/29 05:15:54;0.00;0.00;0.62;0.00;0.00;0.62;3.50;2.53;;;21.50;23.00;;;;;;2259961;61;20376;-66
2024/02/29 05:18:39;0.00;0.00;0.62;0.00;0.00;0.62;2.67;2.23;;;21.50;23.00;;;;;;2259956;61;20360;-65
2024/02/29 05:21:23;0.00;0.00;0.62;0.00;0.00;0.62;4.20;2.17;;;21.50;23.00;;;;;;2263217;61;20442;-65
2024/02/29 05:24:09;0.00;0.00;0.62;0.00;0.00;0.62;2.60;2.40;;;21.40;22.90;;;;;;2263318;61;20368;-65
2024/02/29 05:26:54;0.00;0.00;0.62;0.00;0.00;0.62;3.47;2.40;;;21.50;23.00;;;;;;2263055;61;20372;-64
2024/02/29 05:29:39;0.00;0.00;0.62;0.00;0.00;0.62;3.07;2.17;;;21.50;23.00;;;;;;2263577;61;20379;-65
2024/02/29 05:32:23;0.00;0.00;0.62;0.00;0.00;0.62;2.57;2.00;;;21.50;23.00;;;;;;2259951;61;20538;-65
2024/02/29 05:35:08;0.00;0.00;0.62;0.00;0.00;0.62;3.83;2.80;;;21.40;22.90;;;;;;2263261;61;20957;-65
2024/02/29 05:37:53;0.00;0.00;0.62;0.00;0.00;0.62;3.00;2.70;;;21.40;22.90;;;;;;2263479;61;20481;-63
2024/02/29 05:40:38;0.00;0.00;0.62;0.00;0.00;0.62;4.87;3.70;;;21.40;22.90;;;;;;2263426;61;20496;-65
2024/02/29 05:43:23;0.00;0.00;0.62;0.00;0.00;0.62;5.63;4.27;;;21.40;22.90;;;;;;2263290;61;20440;-65
2024/02/29 05:46:08;0.00;0.00;0.62;0.00;0.00;0.62;3.90;3.40;;;21.40;22.90;;;;;;2263184;61;20364;-65
2024/02/29 05:48:52;0.00;0.00;0.62;0.00;0.00;0.62;4.83;3.60;;;21.40;22.80;;;;;;2262980;61;20356;-65
2024/02/29 05:51:37;0.00;0.00;0.62;0.00;0.00;0.62;6.80;3.77;;;21.40;22.80;;;;;;2263342;61;20427;-65
2024/02/29 05:54:22;0.00;0.00;0.62;0.00;0.00;0.62;6.33;4.67;;;21.40;22.80;;;;;;2263062;61;20952;-65
2024/02/29 05:57:08;0.00;0.00;0.62;0.00;0.00;0.62;5.07;4.33;;;21.40;22.80;;;;;;2263806;61;20924;-65
2024/02/29 05:59:53;0.00;0.00;0.62;0.00;0.00;0.62;6.30;4.57;;;21.40;22.80;;;;;;2264076;61;20367;-65
2024/02/29 06:02:38;0.00;0.00;0.62;0.00;0.00;0.62;6.07;4.80;;;21.40;22.90;;;;;;2263892;61;20359;-66
2024/02/29 06:05:23;0.00;0.00;0.62;0.00;0.00;0.62;6.13;4.83;;;21.40;22.80;;;;;;2263964;61;20453;-66
2024/02/29 06:08:08;0.00;0.00;0.62;0.00;0.00;0.62;6.20;5.57;;;21.40;22.90;;;;;;2263698;61;20395;-66
2024/02/29 06:10:52;0.00;0.00;0.62;0.00;0.00;0.62;6.43;4.53;;;21.40;22.90;;;;;;2263665;61;20430;-65
2024/02/29 06:13:40;0.00;0.00;0.62;0.00;0.00;0.62;5.77;4.40;;;21.40;22.90;;;;;;2264159;61;20375;-65
2024/02/29 06:16:25;0.00;0.00;0.62;0.00;0.00;0.62;5.43;4.50;;;21.30;22.80;;;;;;2260541;61;20368;-65
2024/02/29 06:19:09;0.00;0.00;0.62;0.00;0.00;0.62;5.57;4.90;;;21.30;22.80;;;;;;2263636;61;20920;-65
2024/02/29 06:21:54;0.00;0.00;0.62;0.00;0.00;0.62;5.37;4.57;;;21.40;22.90;;;;;;2264002;61;20391;-65
2024/02/29 06:24:38;0.00;0.00;0.62;0.00;0.00;0.62;5.93;5.00;;;21.30;22.90;;;;;;2263680;61;20656;-65
2024/02/29 06:27:23;0.00;0.00;0.62;0.00;0.00;0.62;6.67;4.47;;;21.40;22.90;;;;;;2263692;61;20422;-65
2024/02/29 06:30:10;0.00;0.00;0.62;0.00;0.00;0.62;5.80;4.20;;;21.30;22.90;;;;;;2263889;61;20356;-66
2024/02/29 06:32:55;0.00;0.00;0.62;0.00;0.00;0.62;6.50;4.93;;;21.30;22.90;;;;;;2263924;61;20395;-66
2024/02/29 06:35:39;0.00;0.00;0.62;0.00;0.00;0.62;5.93;5.00;;;21.30;22.90;;;;;;2264078;61;20367;-65
2024/02/29 06:38:24;0.00;0.00;0.62;0.00;0.00;0.62;5.03;4.30;;;21.30;22.90;;;;;;2260485;61;20395;-65
2024/02/29 06:41:09;0.00;0.00;0.62;0.00;0.00;0.62;5.83;5.07;;;21.30;22.90;;;;;;2263756;61;20435;-65
2024/02/29 06:43:54;0.00;0.00;0.62;0.00;0.00;0.62;5.70;4.50;;;21.30;23.40;;;;;;2264296;61;20510;-65
2024/02/29 06:46:40;0.00;0.00;0.62;0.00;0.00;0.62;6.90;5.27;;;21.30;22.90;;;;;;2263885;61;20430;-67
2024/02/29 06:49:25;0.00;0.00;0.62;0.00;0.00;0.62;5.57;4.97;;;21.30;22.90;;;;;;2264000;61;20364;-66
2024/02/29 06:52:09;0.00;0.00;0.62;0.00;0.00;0.62;7.10;5.70;;;21.30;23.00;;;;;;2263656;61;20423;-66
2024/02/29 06:54:54;0.00;0.00;0.62;0.00;0.00;0.62;7.00;5.90;;;21.30;22.90;;;;;;2263682;61;20510;-66
2024/02/29 06:57:39;0.00;0.00;0.62;0.00;0.00;0.62;6.57;5.73;;;21.30;22.90;;;;;;2263780;61;20766;-66
2024/02/29 07:00:24;0.00;0.00;0.62;0.00;0.00;0.62;7.47;6.30;;;21.30;23.00;;;;;;2263961;61;20360;-66
2024/02/29 07:03:10;0.00;0.00;0.62;0.00;0.00;0.62;8.40;6.47;;;21.30;23.00;;;;;;2263591;61;20387;-66
2024/02/29 07:05:55;0.00;0.00;0.62;0.00;0.00;0.62;9.13;6.90;;;21.30;23.00;;;;;;2263900;61;20495;-66
2024/02/29 07:08:40;0.00;0.00;0.62;0.00;0.00;0.62;7.90;6.70;;;21.30;22.90;;;;;;2263696;61;20368;-66
2024/02/29 07:11:25;0.00;0.00;0.62;0.00;0.00;0.62;7.97;6.87;;;21.30;22.90;;;;;;2263689;61;20403;-66
2024/02/29 07:14:10;0.00;0.00;0.62;0.00;0.00;0.62;8.33;7.27;;;21.30;22.90;;;;;;2263893;61;20777;-67
2024/02/29 07:16:55;0.00;0.00;0.62;0.00;0.00;0.62;7.83;6.90;;;21.30;23.00;;;;;;2263594;61;20408;-66
2024/02/29 07:19:41;0.00;0.00;0.62;0.00;0.00;0.62;7.40;6.43;;;21.30;23.50;;;;;;2263727;61;20782;-66
2024/02/29 07:22:26;0.00;0.00;0.62;0.00;0.00;0.62;8.40;7.13;;;21.30;23.00;;;;;;2263665;61;20982;-66
2024/02/29 07:25:12;0.00;0.00;0.62;0.00;0.00;0.62;9.00;7.10;;;21.30;23.00;;;;;;2263575;61;20418;-67
2024/02/29 07:27:58;0.00;0.00;0.62;0.00;0.00;0.62;7.70;6.80;;;21.30;23.00;;;;;;2260500;61;20360;-66
2024/02/29 07:30:43;0.00;0.00;0.62;0.00;0.00;0.62;8.20;6.73;;;21.30;23.00;;;;;;2263680;61;20419;-66
2024/02/29 07:33:28;0.00;0.00;0.62;0.00;0.00;0.62;10.60;8.17;;;21.30;23.00;;;;;;2263492;61;20446;-66
2024/02/29 07:36:14;0.00;0.00;0.62;0.00;0.00;0.62;9.23;7.63;;;21.30;23.50;;;;;;2263751;61;20367;-66
2024/02/29 07:38:58;0.00;0.00;0.62;0.00;0.00;0.62;9.30;8.17;;;21.30;23.50;;;;;;2263538;61;20380;-66
2024/02/29 07:41:43;0.00;0.00;0.62;0.00;0.00;0.62;13.30;9.77;;;21.30;23.00;;;;;;2608297;45;20384;-66
2024/02/29 07:44:29;0.00;0.00;0.62;0.00;0.00;0.62;11.53;8.63;;;21.30;23.50;;;;;;2263507;61;20419;-66
2024/02/29 07:47:13;0.00;0.00;0.62;0.00;0.00;0.62;9.97;8.97;;;21.30;23.00;;;;;;2263550;61;20444;-66
2024/02/29 07:49:58;0.00;0.00;0.62;0.00;0.00;0.62;12.40;10.00;;;21.30;22.90;;;;;;2263925;61;20365;-67
2024/02/29 07:52:44;0.00;0.00;0.62;0.00;0.00;0.62;9.03;8.13;;;21.30;22.90;;;;;;2263521;61;20392;-66
2024/02/29 07:55:28;0.00;0.00;0.62;0.00;0.00;0.62;11.00;8.10;;;21.30;22.90;;;;;;2263329;61;20364;-66
2024/02/29 07:58:13;0.00;0.00;0.62;0.00;0.00;0.62;10.00;8.57;;;21.30;22.90;;;;;;2263738;61;20360;-66
2024/02/29 08:00:58;0.00;0.00;0.62;0.00;0.00;0.62;10.40;7.50;;;21.30;22.90;;;;;;2263483;61;20491;-66
2024/02/29 08:03:42;0.00;0.00;0.62;0.00;0.00;0.62;9.50;7.80;;;21.30;22.90;;;;;;2263855;61;20955;-66
2024/02/29 08:06:27;0.00;0.00;0.62;0.00;0.00;0.62;9.83;8.03;;;21.30;22.90;;;;;;2263452;61;20411;-66
2024/02/29 08:09:13;0.00;0.00;0.62;0.00;0.00;0.62;10.60;8.10;;;21.30;22.90;;;;;;2263435;61;20879;-66
2024/02/29 08:11:58;0.00;0.00;0.62;0.00;0.00;0.62;10.23;8.03;;;21.30;22.80;;;;;;2263665;61;20957;-66
2024/02/29 08:14:44;0.00;0.00;0.62;0.00;0.00;0.62;8.50;7.13;;;21.30;22.80;;;;;;2263583;61;20935;-66
2024/02/29 08:17:29;0.00;0.00;0.62;0.00;0.00;0.62;8.77;7.67;;;21.30;22.90;;;;;;2263160;61;20361;-66
2024/02/29 08:20:14;0.00;0.00;0.62;0.00;0.00;0.62;8.90;7.27;;;21.30;23.00;;;;;;2263692;61;20414;-66
2024/02/29 08:22:59;0.00;0.00;0.62;0.00;0.00;0.62;9.10;8.10;;;21.30;23.00;;;;;;2263251;61;20368;-66
2024/02/29 08:25:44;0.00;0.00;0.62;0.00;0.00;0.62;10.73;8.03;;;21.30;23.00;;;;;;2263717;61;20764;-65
2024/02/29 08:28:29;0.00;0.00;0.62;0.00;0.00;0.62;10.00;8.20;;;21.30;23.10;;;;;;2263162;61;20364;-66
2024/02/29 08:31:13;0.00;0.00;0.62;0.00;0.00;0.62;8.77;6.97;;;21.30;23.10;;;;;;2263443;61;20392;-66
2024/02/29 08:33:59;0.00;0.00;0.62;0.00;0.00;0.62;8.77;7.87;;;21.30;23.10;;;;;;2263574;61;20410;-66
2024/02/29 08:36:44;0.00;0.00;0.62;0.00;0.00;0.62;8.43;6.83;;;21.30;23.10;;;;;;2263333;61;20410;-65
2024/02/29 08:39:29;0.00;0.00;0.62;0.00;0.00;0.62;8.93;7.10;;;21.30;23.10;;;;;;2263357;61;20939;-66
2024/02/29 08:42:15;0.00;0.00;0.62;0.00;0.00;0.62;7.10;6.37;;;21.30;23.20;;;;;;2263646;61;20376;-66
2024/02/29 08:45:00;0.00;0.00;0.62;0.00;0.00;0.62;9.87;8.13;;;21.30;23.20;;;;;;2263480;61;20772;-65
2024/02/29 08:47:44;0.00;0.00;0.62;0.00;0.00;0.62;8.13;7.00;;;21.30;23.20;;;;;;2263515;61;20368;-65
2024/02/29 08:50:29;0.00;0.00;0.62;0.00;0.00;0.62;7.80;6.57;;;21.30;23.20;;;;;;2263341;61;20881;-66
2024/02/29 08:53:15;0.00;0.00;0.62;0.00;0.00;0.62;7.93;6.33;;;21.30;23.20;;;;;;2263377;61;20363;-65
2024/02/29 08:56:00;0.00;0.00;0.62;0.00;0.00;0.62;7.03;6.10;;;21.30;23.20;;;;;;2263384;61;20364;-65
2024/02/29 08:58:46;0.00;0.00;0.62;0.00;0.00;0.62;7.23;6.37;;;21.30;23.20;;;;;;2263501;61;20499;-65
2024/02/29 09:01:30;0.00;0.00;0.62;0.00;0.00;0.62;7.33;5.90;;;21.40;23.30;;;;;;2260027;61;20667;-65
2024/02/29 09:04:15;0.00;0.00;0.62;0.00;0.00;0.62;7.13;5.53;;;21.40;23.30;;;;;;2263634;61;20449;-65
2024/02/29 09:07:00;0.00;0.00;0.62;0.00;0.00;0.62;8.43;6.67;;;21.40;23.30;;;;;;2263119;61;20368;-65
2024/02/29 09:09:44;0.00;0.00;0.62;0.00;0.00;0.62;9.60;7.07;;;21.40;23.30;;;;;;2263398;61;20402;-65
2024/02/29 09:12:29;0.00;0.00;0.62;0.00;0.00;0.62;8.00;6.73;;;21.40;23.30;;;;;;2263455;61;20449;-65
2024/02/29 09:15:15;0.00;0.00;0.62;0.00;0.00;0.62;8.57;7.37;;;21.40;23.30;;;;;;2262882;61;20620;-65
2024/02/29 09:18:02;0.00;0.00;0.62;0.00;0.00;0.62;7.07;6.33;;;21.40;23.30;;;;;;2263291;61;20527;-65
2024/02/29 09:20:46;0.00;0.00;0.62;0.00;0.00;0.62;6.00;5.23;;;21.40;23.30;;;;;;2263243;61;20400;-65
2024/02/29 09:23:31;0.00;0.00;0.62;0.00;0.00;0.62;6.80;5.33;;;21.40;23.30;;;;;;2263168;61;20366;-65
2024/02/29 09:26:18;0.00;0.00;0.62;0.00;0.00;0.62;6.73;5.37;;;21.40;23.30;;;;;;2263591;61;20402;-65
2024/02/29 09:29:03;0.00;0.00;0.62;0.00;0.00;0.62;6.50;5.37;;;21.40;23.30;;;;;;2263238;61;20501;-65
2024/02/29 09:31:49;0.00;0.00;0.62;0.00;0.00;0.62;7.77;6.70;;;21.50;23.40;;;;;;2263178;61;20498;-66
2024/02/29 09:34:37;0.00;0.00;0.62;0.00;0.00;0.62;7.40;5.83;;;21.50;23.40;;;;;;2263549;61;20376;-65
2024/02/29 09:37:22;0.00;0.00;0.62;0.00;0.00;0.62;6.47;5.30;;;21.50;23.40;;;;;;2263200;61;20356;-64
2024/02/29 09:40:08;0.00;0.00;0.62;0.00;0.00;0.62;6.90;5.83;;;21.50;23.30;;;;;;2263401;61;20774;-65
2024/02/29 09:42:53;0.00;0.00;0.62;0.00;0.00;0.62;6.87;6.17;;;21.50;23.30;;;;;;2263252;61;20372;-65
2024/02/29 09:45:40;0.00;0.00;0.62;0.00;0.00;0.62;6.73;5.40;;;21.50;23.30;;;;;;2263232;61;20364;-66
2024/02/29 09:48:27;0.00;0.00;0.62;0.00;0.00;0.62;6.53;5.40;;;21.50;23.30;;;;;;2261327;61;20877;-64
2024/02/29 09:51:16;0.00;0.00;0.62;0.00;0.00;0.62;6.03;5.10;;;21.60;23.40;;;;;;2264626;61;20941;-65
2024/02/29 09:54:04;0.00;0.00;0.62;0.00;0.00;0.62;6.10;4.53;;;21.60;23.40;;;;;;2264732;61;20488;-65
2024/02/29 09:56:48;0.00;0.00;0.62;0.00;0.00;0.62;7.07;4.90;;;21.60;23.40;;;;;;2264912;61;20356;-65
2024/02/29 09:59:33;0.00;0.00;0.62;0.00;0.00;0.62;6.20;4.90;;;21.60;23.40;;;;;;2264923;61;20947;-66
2024/02/29 10:02:18;0.00;0.00;0.62;0.00;0.00;0.62;5.97;4.90;;;21.60;23.40;;;;;;2263767;61;21026;-65
2024/02/29 10:05:11;0.00;0.00;0.62;0.00;0.00;0.62;6.70;5.30;;;21.60;23.40;;;;;;2264215;61;20360;-66
2024/02/29 10:07:59;0.00;0.00;0.62;0.00;0.00;0.62;5.23;4.63;;;21.60;23.40;;;;;;2263970;61;20400;-66
2024/02/29 10:10:46;0.00;0.00;0.62;0.00;0.00;0.62;5.30;3.97;;;21.70;23.50;;;;;;2264187;61;20408;-64
2024/02/29 10:13:38;0.00;0.00;0.62;0.00;0.00;0.62;5.70;4.37;;;21.70;23.50;;;;;;2263508;61;20446;-63
2024/02/29 10:16:24;0.00;0.00;0.62;0.00;0.00;0.62;5.40;4.90;;;21.70;24.00;;;;;;2263678;61;20448;-65
2024/02/29 10:19:12;0.00;0.00;0.62;0.00;0.00;0.62;5.63;4.60;;;21.70;23.40;;;;;;2263310;61;20414;-63
2024/02/29 10:21:58;0.00;0.00;0.62;0.00;0.00;0.62;5.93;5.37;;;21.70;23.50;;;;;;2260013;61;20412;-65
2024/02/29 10:24:50;0.00;0.00;0.62;0.00;0.00;0.62;5.67;4.80;;;21.80;23.50;;;;;;2263218;61;20418;-63
2024/02/29 10:27:34;0.00;0.00;0.62;0.00;0.00;0.62;6.53;4.73;;;21.80;23.50;;;;;;2263049;61;20360;-64
2024/02/29 10:30:19;0.00;0.00;0.62;0.00;0.00;0.62;5.50;4.40;;;21.80;23.50;;;;;;2263152;61;20448;-65
2024/02/29 10:33:09;0.00;0.00;0.62;0.00;0.00;0.62;5.17;3.80;;;21.80;23.50;;;;;;2263310;61;20387;-68
2024/02/29 10:35:55;0.00;0.00;0.62;0.00;0.00;0.62;6.70;4.30;;;21.80;23.50;;;;;;2263204;61;20414;-66
2024/02/29 10:38:40;0.00;0.00;0.62;0.00;0.00;0.62;5.73;4.47;;;21.90;23.60;;;;;;2263412;61;20907;-66
2024/02/29 10:41:31;0.00;0.00;0.62;0.00;0.00;0.62;4.87;3.93;;;21.90;23.60;;;;;;2263334;61;20383;-66
2024/02/29 10:44:20;0.00;0.00;0.62;0.00;0.00;0.62;4.43;4.00;;;21.90;23.60;;;;;;2263836;61;20379;-66
2024/02/29 10:47:09;0.00;0.00;0.62;0.00;0.00;0.62;4.60;3.90;;;21.90;23.50;;;;;;2263713;61;20372;-66
2024/02/29 10:50:03;0.00;0.00;0.62;0.00;0.00;0.62;4.63;4.13;;;22.00;24.20;;;;;;2263800;61;20371;-66
2024/02/29 10:52:57;0.00;0.00;0.62;0.00;0.00;0.62;5.03;4.53;;;22.00;23.60;;;;;;2263569;61;20396;-66